logo
Search for airport 
image banner adimage banner adimage banner ad
image banner ad

EGSE22 - Colemore Common

Located in Faringdon, United Kingdom

ICAO - , IATA -

Data provided by Airmate  

General information

Coordinates: N51°3'44" W1°0'35"
Elevation is 610 feet MSL.
 
View others Airports in England

Operational data

Special qualification required
Current time UTC:
Current local time:
Weather at : EGVO - Odiham ( 20 km )
TAF: TAF EGVO 231355Z 2315/2403 23010KT 9999 FEW020 TEMPO 2315/2318 7000 SHRA SCT020 PROB30 TEMPO 2315/2317 3000 +SHRA BKN014CB PROB30 TEMPO 2318/2322 SCT018 PROB30 2400/2403 7000 BR
View NOTAMs / SUP AIP / TFR affecting this airport [VIEW]
Communications frequencies: [VIEW]

Runways:

RWY identifierQFULength (ft)Width (ft)SurfaceLDA (ft)
02134559GRASS
20134559GRASS

Airport contact information

Address: Faringdon United Kingdom

Satellite view of EGSE22